Time;durP1;ratioP1;P1;durP2;ratioP2;P2;SDS_P1;SDS_P2;PMS_P1;PMS_P2;Temp;Humidity;BMP_temperature;BMP_pressure;BME280_temperature;BME280_humidity;BME280_pressure;Samples;Min_cycle;Max_cycle;Signal;HPM_P1;HPM_P2
2023/01/18 00:01:04;;;;;;;;;;;;;;;;;;4987875;28;1140;-64
2023/01/18 00:03:32;;;;;;;;;;;;;;;;;;4986038;28;4733;-60
2023/01/18 00:06:00;;;;;;;;;;;;;;;;;;4974716;28;5221;-65
2023/01/18 00:08:25;;;;;;;;;;;;;;;;;;4984051;28;4981;-65
2023/01/18 00:10:50;;;;;;;;;;;;;;;;;;4989123;28;5127;-64
2023/01/18 00:13:16;;;;;;;;;;;;;;;;;;4988041;28;3324;-65
2023/01/18 00:15:41;;;;;;;;;;;;;;;;;;4983145;28;5572;-64
2023/01/18 00:18:06;;;;;;;;;;;;;;;;;;4977896;28;5177;-64
2023/01/18 00:20:31;;;;;;;;;;;;;;;;;;4986086;28;4540;-61
2023/01/18 00:23:00;;;;;;;;;;;;;;;;;;4985759;28;5081;-64
2023/01/18 00:25:26;;;;;;;;;;;;;;;;;;4982733;28;3491;-64
2023/01/18 00:27:52;;;;;;;;;;;;;;;;;;4976173;28;4578;-64
2023/01/18 00:30:19;;;;;;;;;;;;;;;;;;4976989;28;4971;-62
2023/01/18 00:32:44;;;;;;;;;;;;;;;;;;4984932;28;4939;-64
2023/01/18 00:35:10;;;;;;;;;;;;;;;;;;4976269;28;5822;-64
2023/01/18 00:37:36;;;;;;;;;;;;;;;;;;4987246;28;5074;-64
2023/01/18 00:40:01;;;;;;;;;;;;;;;;;;4985783;28;3463;-63
2023/01/18 00:45:10;;;;;;;;;;;;;;;;;;4983419;28;5216;-64
2023/01/18 00:47:35;;;;;;;;;;;;;;;;;;4979347;28;5651;-63
2023/01/18 00:50:01;;;;;;;;;;;;;;;;;;4980350;28;5070;-63
2023/01/18 00:52:26;;;;;;;;;;;;;;;;;;4982849;28;3375;-63
2023/01/18 00:54:51;;;;;;;;;;;;;;;;;;4982219;28;4667;-64
2023/01/18 00:57:17;;;;;;;;;;;;;;;;;;4982553;28;5107;-63
2023/01/18 00:59:42;;;;;;;;;;;;;;;;;;4980258;28;4775;-63
2023/01/18 01:02:07;;;;;;;;;;;;;;;;;;4978870;28;5341;-64
2023/01/18 01:07:16;;;;;;;;;;;;;;;;;;4973347;28;3623;-64
2023/01/18 01:09:43;;;;;;;;;;;;;;;;;;4980835;28;5492;-63
2023/01/18 01:26:07;;;;;;;;;;;;;;;;;;4981311;28;4511;-64
2023/01/18 01:28:42;;;;;;;;;;;;;;;;;;4985707;28;4529;-63
2023/01/18 01:31:08;;;;;;;;;;;;;;;;;;4982654;28;4329;-64
2023/01/18 01:33:34;;;;;;;;;;;;;;;;;;4982242;28;4655;-64
2023/01/18 01:36:03;;;;;;;;;;;;;;;;;;4983404;28;5132;-64
2023/01/18 01:38:28;;;;;;;;;;;;;;;;;;4962969;28;5276;-65
2023/01/18 01:40:54;;;;;;;;;;;;;;;;;;4979498;28;4588;-63
2023/01/18 01:43:35;;;;;;;;;;;;;;;;;;4978748;28;3505;-65
2023/01/18 01:46:00;;;;;;;;;;;;;;;;;;4977684;28;5143;-64
2023/01/18 01:48:25;;;;;;;;;;;;;;;;;;4978073;28;5077;-64
2023/01/18 01:50:50;;;;;;;;;;;;;;;;;;4976055;28;5099;-65
2023/01/18 01:53:16;;;;;;;;;;;;;;;;;;4975419;28;5101;-65
2023/01/18 01:55:41;;;;;;;;;;;;;;;;;;4972276;28;5507;-64
2023/01/18 01:58:17;;;;;;;;;;;;;;;;;;4983692;28;3361;-62
2023/01/18 02:00:42;;;;;;;;;;;;;;;;;;4981647;28;5145;-66
2023/01/18 02:03:08;;;;;;;;;;;;;;;;;;4981811;28;5210;-62
2023/01/18 02:05:33;;;;;;;;;;;;;;;;;;4983331;28;5022;-63
2023/01/18 02:07:59;;;;;;;;;;;;;;;;;;4982088;28;4679;-63
2023/01/18 02:10:24;;;;;;;;;;;;;;;;;;4983889;28;3579;-63
2023/01/18 02:12:50;;;;;;;;;;;;;;;;;;4981187;28;4812;-63
2023/01/18 02:15:15;;;;;;;;;;;;;;;;;;4982040;28;5103;-63
2023/01/18 02:17:46;;;;;;;;;;;;;;;;;;4974994;28;4942;-63
2023/01/18 02:20:30;;;;;;;;;;;;;;;;;;4978391;28;5087;-61
2023/01/18 02:22:55;;;;;;;;;;;;;;;;;;4974296;28;5014;-63
2023/01/18 02:25:41;;;;;;;;;;;;;;;;;;4976195;28;3575;-63
2023/01/18 02:28:06;;;;;;;;;;;;;;;;;;4977983;28;4809;-64
2023/01/18 02:30:33;;;;;;;;;;;;;;;;;;4980242;28;5256;-63
2023/01/18 02:33:04;;;;;;;;;;;;;;;;;;4976840;28;5250;-63
2023/01/18 02:35:29;;;;;;;;;;;;;;;;;;4981813;28;5063;-64
2023/01/18 02:37:58;;;;;;;;;;;;;;;;;;4984629;28;5151;-63
2023/01/18 02:40:29;;;;;;;;;;;;;;;;;;4977105;28;3433;-61
2023/01/18 02:48:23;;;;;;;;;;;;;;;;;;4999319;28;5405;-60
2023/01/18 02:50:49;;;;;;;;;;;;;;;;;;4996318;28;5340;-63
2023/01/18 02:53:14;;;;;;;;;;;;;;;;;;5001229;28;4818;-63
2023/01/18 02:55:57;;;;;;;;;;;;;;;;;;4997966;28;4632;-64
2023/01/18 02:58:33;;;;;;;;;;;;;;;;;;4997713;28;3614;-63
2023/01/18 03:01:21;;;;;;;;;;;;;;;;;;4996485;28;5094;-63
2023/01/18 03:03:46;;;;;;;;;;;;;;;;;;5005421;28;5000;-63
2023/01/18 03:06:11;;;;;;;;;;;;;;;;;;4993348;28;4990;-63
2023/01/18 03:08:43;;;;;;;;;;;;;;;;;;4991872;28;5527;-62
2023/01/18 03:11:13;;;;;;;;;;;;;;;;;;5007638;28;4499;-63
2023/01/18 03:13:56;;;;;;;;;;;;;;;;;;5003964;28;4760;-63
2023/01/18 03:16:22;;;;;;;;;;;;;;;;;;5006172;28;3334;-64
2023/01/18 03:19:01;;;;;;;;;;;;;;;;;;5002531;28;5178;-63
2023/01/18 03:21:35;;;;;;;;;;;;;;;;;;5005135;28;5195;-62
2023/01/18 03:24:01;;;;;;;;;;;;;;;;;;5006778;28;5057;-64
2023/01/18 03:26:26;;;;;;;;;;;;;;;;;;4998288;28;5053;-62
2023/01/18 03:34:22;;;;;;;;;;;;;;;;;;4987847;28;3968;-64
2023/01/18 03:36:48;;;;;;;;;;;;;;;;;;4982214;28;5093;-61
2023/01/18 03:39:16;;;;;;;;;;;;;;;;;;4981536;28;5191;-63
2023/01/18 03:41:42;;;;;;;;;;;;;;;;;;4982147;28;5119;-62
2023/01/18 03:44:11;;;;;;;;;;;;;;;;;;4987649;28;5023;-63
2023/01/18 03:46:36;;;;;;;;;;;;;;;;;;4983413;28;5128;-64
2023/01/18 03:49:02;;;;;;;;;;;;;;;;;;4983206;28;3360;-64
2023/01/18 03:51:30;;;;;;;;;;;;;;;;;;4980564;28;4919;-66
2023/01/18 03:54:05;;;;;;;;;;;;;;;;;;4985680;28;5102;-65
2023/01/18 03:56:33;;;;;;;;;;;;;;;;;;4985593;28;5234;-66
2023/01/18 03:58:59;;;;;;;;;;;;;;;;;;4986760;28;5210;-67
2023/01/18 04:01:24;;;;;;;;;;;;;;;;;;4984328;28;3461;-64
2023/01/18 04:03:50;;;;;;;;;;;;;;;;;;4984387;28;5040;-67
2023/01/18 04:06:15;;;;;;;;;;;;;;;;;;4987551;28;5165;-65
2023/01/18 04:08:40;;;;;;;;;;;;;;;;;;4983685;28;4477;-68
2023/01/18 04:11:05;;;;;;;;;;;;;;;;;;4984621;28;4694;-63
2023/01/18 04:13:31;;;;;;;;;;;;;;;;;;4985392;28;4671;-64
2023/01/18 04:15:56;;;;;;;;;;;;;;;;;;4981056;28;3657;-64
2023/01/18 04:18:21;;;;;;;;;;;;;;;;;;4975765;28;4508;-65
2023/01/18 04:20:47;;;;;;;;;;;;;;;;;;4985697;28;4506;-65
2023/01/18 04:23:13;;;;;;;;;;;;;;;;;;4976873;28;5131;-64
2023/01/18 04:25:39;;;;;;;;;;;;;;;;;;4981332;28;5069;-64
2023/01/18 04:28:05;;;;;;;;;;;;;;;;;;4985085;28;3160;-63
2023/01/18 04:30:30;;;;;;;;;;;;;;;;;;4980717;28;5078;-62
2023/01/18 04:32:55;;;;;;;;;;;;;;;;;;4981385;28;4596;-63
2023/01/18 04:35:20;;;;;;;;;;;;;;;;;;4985459;28;5207;-64
2023/01/18 04:37:49;;;;;;;;;;;;;;;;;;4979305;28;5746;-61
2023/01/18 04:40:15;;;;;;;;;;;;;;;;;;4982604;28;3579;-62
2023/01/18 04:42:40;;;;;;;;;;;;;;;;;;4982482;28;5041;-62
2023/01/18 04:45:06;;;;;;;;;;;;;;;;;;4982068;28;5095;-63
2023/01/18 04:47:31;;;;;;;;;;;;;;;;;;4983552;28;4676;-63
2023/01/18 04:49:56;;;;;;;;;;;;;;;;;;4985089;28;5131;-59
2023/01/18 04:52:22;;;;;;;;;;;;;;;;;;4984635;28;4096;-63
2023/01/18 04:54:47;;;;;;;;;;;;;;;;;;4982501;28;5383;-64
2023/01/18 04:57:12;;;;;;;;;;;;;;;;;;4984308;28;4953;-63
2023/01/18 04:59:38;;;;;;;;;;;;;;;;;;4987136;28;5515;-66
2023/01/18 05:02:03;;;;;;;;;;;;;;;;;;4985156;28;4929;-62
2023/01/18 05:04:29;;;;;;;;;;;;;;;;;;4986431;28;5054;-61
2023/01/18 05:06:54;;;;;;;;;;;;;;;;;;4975734;28;4427;-65
2023/01/18 05:09:20;;;;;;;;;;;;;;;;;;4977861;28;5148;-64
2023/01/18 05:11:45;;;;;;;;;;;;;;;;;;4980524;28;4963;-66
2023/01/18 05:14:10;;;;;;;;;;;;;;;;;;4981321;28;5173;-66
2023/01/18 05:16:35;;;;;;;;;;;;;;;;;;4987146;28;5071;-64
2023/01/18 05:19:01;;;;;;;;;;;;;;;;;;4986026;28;3602;-66
2023/01/18 05:21:27;;;;;;;;;;;;;;;;;;4990092;28;5262;-65
2023/01/18 05:23:53;;;;;;;;;;;;;;;;;;4986570;28;5086;-65
2023/01/18 05:26:19;;;;;;;;;;;;;;;;;;4977143;28;4478;-61
2023/01/18 05:28:45;;;;;;;;;;;;;;;;;;4979413;28;5562;-65
2023/01/18 05:31:11;;;;;;;;;;;;;;;;;;4982762;28;4483;-64
2023/01/18 05:33:36;;;;;;;;;;;;;;;;;;4987390;28;4969;-65
2023/01/18 05:36:01;;;;;;;;;;;;;;;;;;4978141;28;5061;-63
2023/01/18 05:38:26;;;;;;;;;;;;;;;;;;4983743;28;5058;-63
2023/01/18 05:40:52;;;;;;;;;;;;;;;;;;4984241;28;5345;-63
2023/01/18 05:43:18;;;;;;;;;;;;;;;;;;4983499;28;3668;-62
2023/01/18 05:45:43;;;;;;;;;;;;;;;;;;4978004;28;5626;-63
2023/01/18 05:48:09;;;;;;;;;;;;;;;;;;4983509;28;5230;-64
2023/01/18 05:50:34;;;;;;;;;;;;;;;;;;4982222;28;5174;-63
2023/01/18 05:53:00;;;;;;;;;;;;;;;;;;4982529;28;5017;-64
2023/01/18 05:55:25;;;;;;;;;;;;;;;;;;4980426;28;3590;-64
2023/01/18 05:57:51;;;;;;;;;;;;;;;;;;4979559;28;5065;-62
2023/01/18 06:00:16;;;;;;;;;;;;;;;;;;4984343;28;4502;-63
2023/01/18 06:02:42;;;;;;;;;;;;;;;;;;4978113;28;4880;-64
2023/01/18 06:05:07;;;;;;;;;;;;;;;;;;4982428;28;4899;-63
2023/01/18 06:07:32;;;;;;;;;;;;;;;;;;4980096;28;5139;-63
2023/01/18 06:09:58;;;;;;;;;;;;;;;;;;4971774;28;3614;-62
2023/01/18 06:12:23;;;;;;;;;;;;;;;;;;4969313;28;4999;-62
2023/01/18 06:14:48;;;;;;;;;;;;;;;;;;4972219;28;5380;-62
2023/01/18 06:17:13;;;;;;;;;;;;;;;;;;4980838;28;5282;-63
2023/01/18 06:19:38;;;;;;;;;;;;;;;;;;4974198;28;5020;-63
2023/01/18 06:22:04;;;;;;;;;;;;;;;;;;4982104;28;3538;-63
2023/01/18 06:24:29;;;;;;;;;;;;;;;;;;4981036;28;5132;-63
2023/01/18 06:26:54;;;;;;;;;;;;;;;;;;4978755;28;5106;-62
2023/01/18 06:29:19;;;;;;;;;;;;;;;;;;4983515;28;4510;-64
2023/01/18 06:31:45;;;;;;;;;;;;;;;;;;4981823;28;5087;-63
2023/01/18 06:34:10;;;;;;;;;;;;;;;;;;4981495;28;3484;-64
2023/01/18 06:36:36;;;;;;;;;;;;;;;;;;4975113;28;5465;-63
2023/01/18 06:39:01;;;;;;;;;;;;;;;;;;4978508;28;4926;-64
2023/01/18 06:41:28;;;;;;;;;;;;;;;;;;4975726;28;5189;-63
2023/01/18 06:43:53;;;;;;;;;;;;;;;;;;4976650;28;5142;-61
2023/01/18 06:46:18;;;;;;;;;;;;;;;;;;4989871;28;3483;-63
2023/01/18 06:48:43;;;;;;;;;;;;;;;;;;4982115;28;5011;-62
2023/01/18 06:51:11;;;;;;;;;;;;;;;;;;4975240;28;4471;-62
2023/01/18 06:53:36;;;;;;;;;;;;;;;;;;4984771;28;5244;-63
2023/01/18 06:56:02;;;;;;;;;;;;;;;;;;4977272;28;4939;-64
2023/01/18 06:58:27;;;;;;;;;;;;;;;;;;4976257;28;5071;-61
2023/01/18 07:00:56;;;;;;;;;;;;;;;;;;4987429;28;3420;-63
2023/01/18 07:03:21;;;;;;;;;;;;;;;;;;4990498;28;5076;-63
2023/01/18 07:05:47;;;;;;;;;;;;;;;;;;4986269;28;4530;-64
2023/01/18 07:08:12;;;;;;;;;;;;;;;;;;4990216;28;4788;-63
2023/01/18 07:10:37;;;;;;;;;;;;;;;;;;4983315;28;4977;-63
2023/01/18 07:13:02;;;;;;;;;;;;;;;;;;4987631;28;3135;-63
2023/01/18 07:15:28;;;;;;;;;;;;;;;;;;4992506;28;4460;-64
2023/01/18 07:17:53;;;;;;;;;;;;;;;;;;4990589;28;5199;-64
2023/01/18 07:20:18;;;;;;;;;;;;;;;;;;4987169;28;5036;-64
2023/01/18 07:22:43;;;;;;;;;;;;;;;;;;4977488;28;4945;-64
2023/01/18 07:25:12;;;;;;;;;;;;;;;;;;4988973;28;3368;-64
2023/01/18 07:27:37;;;;;;;;;;;;;;;;;;4984745;28;5439;-63
2023/01/18 07:30:03;;;;;;;;;;;;;;;;;;4985359;28;4940;-63
2023/01/18 07:32:28;;;;;;;;;;;;;;;;;;4983507;28;5276;-63
2023/01/18 07:34:53;;;;;;;;;;;;;;;;;;4988464;28;4635;-64
2023/01/18 07:37:18;;;;;;;;;;;;;;;;;;4989711;28;3462;-67
2023/01/18 07:39:44;;;;;;;;;;;;;;;;;;4984061;28;5030;-67
2023/01/18 07:42:10;;;;;;;;;;;;;;;;;;4989399;28;4852;-67
2023/01/18 07:44:36;;;;;;;;;;;;;;;;;;4988814;28;5445;-63
2023/01/18 07:47:01;;;;;;;;;;;;;;;;;;4982826;28;5338;-65
2023/01/18 07:49:27;;;;;;;;;;;;;;;;;;4988321;28;2159;-65
2023/01/18 07:51:52;;;;;;;;;;;;;;;;;;4987037;28;6044;-67
2023/01/18 07:54:17;;;;;;;;;;;;;;;;;;4984771;28;5159;-66
2023/01/18 07:56:43;;;;;;;;;;;;;;;;;;4987171;28;4788;-65
2023/01/18 07:59:08;;;;;;;;;;;;;;;;;;4983029;28;4586;-62
2023/01/18 08:01:34;;;;;;;;;;;;;;;;;;4989227;28;5114;-62
2023/01/18 08:03:59;;;;;;;;;;;;;;;;;;4983055;28;3435;-63
2023/01/18 08:06:24;;;;;;;;;;;;;;;;;;4992110;28;4832;-63
2023/01/18 08:08:50;;;;;;;;;;;;;;;;;;4988128;28;5090;-62
2023/01/18 08:11:16;;;;;;;;;;;;;;;;;;4987262;28;5155;-62
2023/01/18 08:13:41;;;;;;;;;;;;;;;;;;4987163;28;4753;-62
2023/01/18 08:16:07;;;;;;;;;;;;;;;;;;4985101;28;3582;-62
2023/01/18 08:18:32;;;;;;;;;;;;;;;;;;4984976;28;5216;-62
2023/01/18 08:20:57;;;;;;;;;;;;;;;;;;4977870;28;5147;-60
2023/01/18 08:23:23;;;;;;;;;;;;;;;;;;4988098;28;5128;-61
2023/01/18 08:25:48;;;;;;;;;;;;;;;;;;4986812;28;4901;-61
2023/01/18 08:28:13;;;;;;;;;;;;;;;;;;4994962;28;3067;-62
2023/01/18 08:30:39;;;;;;;;;;;;;;;;;;4984500;28;5049;-61
2023/01/18 08:33:05;;;;;;;;;;;;;;;;;;4988400;28;4761;-62
2023/01/18 08:35:31;;;;;;;;;;;;;;;;;;4984832;28;4905;-59
2023/01/18 08:37:56;;;;;;;;;;;;;;;;;;4986642;28;5118;-62
2023/01/18 08:40:25;;;;;;;;;;;;;;;;;;4986403;28;2512;-62
2023/01/18 08:42:50;;;;;;;;;;;;;;;;;;4988536;28;4599;-66
2023/01/18 08:45:16;;;;;;;;;;;;;;;;;;4985215;28;4629;-63
2023/01/18 08:47:41;;;;;;;;;;;;;;;;;;4985682;28;5646;-64
2023/01/18 08:50:07;;;;;;;;;;;;;;;;;;4988845;28;5118;-64
2023/01/18 08:52:34;;;;;;;;;;;;;;;;;;4978364;28;5145;-65
2023/01/18 08:55:00;;;;;;;;;;;;;;;;;;4986183;28;3325;-64
2023/01/18 08:57:28;;;;;;;;;;;;;;;;;;4980343;28;5144;-67
2023/01/18 08:59:55;;;;;;;;;;;;;;;;;;4989237;28;4962;-68
2023/01/18 09:02:20;;;;;;;;;;;;;;;;;;4984302;28;5109;-63
2023/01/18 09:04:47;;;;;;;;;;;;;;;;;;4987199;28;4952;-66
2023/01/18 09:07:13;;;;;;;;;;;;;;;;;;4988630;28;3616;-63
2023/01/18 09:09:38;;;;;;;;;;;;;;;;;;4983314;28;5119;-63
2023/01/18 09:12:03;;;;;;;;;;;;;;;;;;4985530;28;5141;-63
2023/01/18 09:14:28;;;;;;;;;;;;;;;;;;4993208;28;5551;-62
2023/01/18 09:16:54;;;;;;;;;;;;;;;;;;4990926;28;5156;-63
2023/01/18 09:19:19;;;;;;;;;;;;;;;;;;4988314;28;1410;-63
2023/01/18 09:21:45;;;;;;;;;;;;;;;;;;4986339;28;5197;-63
2023/01/18 09:24:11;;;;;;;;;;;;;;;;;;4984158;28;5207;-64
2023/01/18 09:26:37;;;;;;;;;;;;;;;;;;4981228;28;5090;-64
2023/01/18 09:29:02;;;;;;;;;;;;;;;;;;4981642;28;5023;-65
2023/01/18 09:31:28;;;;;;;;;;;;;;;;;;4983423;28;5021;-63
2023/01/18 09:33:56;;;;;;;;;;;;;;;;;;4986799;28;1138;-64
2023/01/18 09:36:28;;;;;;;;;;;;;;;;;;4988314;28;5408;-64
2023/01/18 09:38:54;;;;;;;;;;;;;;;;;;4991697;28;5108;-65
2023/01/18 09:41:19;;;;;;;;;;;;;;;;;;4983900;28;5115;-63
2023/01/18 09:43:48;;;;;;;;;;;;;;;;;;4984037;28;5278;-64
2023/01/18 09:46:20;;;;;;;;;;;;;;;;;;4984610;28;3451;-62
2023/01/18 09:48:57;;;;;;;;;;;;;;;;;;4981551;28;5130;-60
2023/01/18 09:51:23;;;;;;;;;;;;;;;;;;4980497;28;5060;-58
2023/01/18 09:53:52;;;;;;;;;;;;;;;;;;4982950;28;4556;-58
2023/01/18 09:56:22;;;;;;;;;;;;;;;;;;4987813;28;4506;-57
2023/01/18 09:58:53;;;;;;;;;;;;;;;;;;4980804;28;5154;-58
2023/01/18 10:01:20;;;;;;;;;;;;;;;;;;4983719;28;3321;-58
2023/01/18 10:03:49;;;;;;;;;;;;;;;;;;4983931;28;5057;-58
2023/01/18 10:06:20;;;;;;;;;;;;;;;;;;4985762;28;4943;-57
2023/01/18 10:09:08;;;;;;;;;;;;;;;;;;4987146;28;4502;-59
2023/01/18 10:11:53;;;;;;;;;;;;;;;;;;4977356;28;4603;-60
2023/01/18 10:14:24;;;;;;;;;;;;;;;;;;4982040;28;5075;-58
2023/01/18 10:16:57;;;;;;;;;;;;;;;;;;4988729;28;5169;-59
2023/01/18 10:19:29;;;;;;;;;;;;;;;;;;4984597;28;3249;-58
2023/01/18 10:22:03;;;;;;;;;;;;;;;;;;4998861;28;4890;-63
2023/01/18 10:24:29;;;;;;;;;;;;;;;;;;4977914;28;5081;-62
2023/01/18 10:26:59;;;;;;;;;;;;;;;;;;4983880;28;4954;-60
2023/01/18 10:29:43;;;;;;;;;;;;;;;;;;4967600;28;5060;-59
2023/01/18 10:32:10;;;;;;;;;;;;;;;;;;4986663;28;5050;-58
2023/01/18 10:34:37;;;;;;;;;;;;;;;;;;4985661;28;5171;-58
2023/01/18 10:37:13;;;;;;;;;;;;;;;;;;4980712;28;1966;-60
2023/01/18 10:39:45;;;;;;;;;;;;;;;;;;4985954;28;5051;-58
2023/01/18 10:42:29;;;;;;;;;;;;;;;;;;4986442;28;4605;-59
2023/01/18 10:44:54;;;;;;;;;;;;;;;;;;4975972;28;5143;-64
2023/01/18 10:47:19;;;;;;;;;;;;;;;;;;4974495;28;5168;-61
2023/01/18 10:49:46;;;;;;;;;;;;;;;;;;4973769;28;5039;-62
2023/01/18 10:52:15;;;;;;;;;;;;;;;;;;4980725;28;1211;-61
2023/01/18 10:54:41;;;;;;;;;;;;;;;;;;4979212;28;5124;-63
2023/01/18 10:57:13;;;;;;;;;;;;;;;;;;4986206;28;5015;-63
2023/01/18 10:59:38;;;;;;;;;;;;;;;;;;4982849;28;4518;-61
2023/01/18 11:02:04;;;;;;;;;;;;;;;;;;4981789;28;4544;-60
2023/01/18 11:04:30;;;;;;;;;;;;;;;;;;4984517;28;5289;-60
2023/01/18 11:06:56;;;;;;;;;;;;;;;;;;4993349;28;1191;-59
2023/01/18 11:09:42;;;;;;;;;;;;;;;;;;4997420;28;5538;-59
2023/01/18 11:12:33;;;;;;;;;;;;;;;;;;4981097;28;5082;-60
2023/01/18 11:15:13;;;;;;;;;;;;;;;;;;4976108;28;5057;-59
2023/01/18 11:17:56;;;;;;;;;;;;;;;;;;4975258;28;4665;-60
2023/01/18 11:20:24;;;;;;;;;;;;;;;;;;4982349;28;5296;-59
2023/01/18 11:22:53;;;;;;;;;;;;;;;;;;4983883;28;4592;-59
2023/01/18 11:25:18;;;;;;;;;;;;;;;;;;4982917;28;1199;-60
2023/01/18 11:27:44;;;;;;;;;;;;;;;;;;4989099;28;4652;-58
2023/01/18 11:30:22;;;;;;;;;;;;;;;;;;4987925;28;4980;-60
2023/01/18 11:32:47;;;;;;;;;;;;;;;;;;5001301;28;4647;-58
2023/01/18 11:35:30;;;;;;;;;;;;;;;;;;4984372;28;5129;-59
2023/01/18 11:37:59;;;;;;;;;;;;;;;;;;4987489;28;5164;-60
2023/01/18 11:40:28;;;;;;;;;;;;;;;;;;4989524;28;1258;-60
2023/01/18 11:43:02;;;;;;;;;;;;;;;;;;4988594;28;5251;-60
2023/01/18 11:45:29;;;;;;;;;;;;;;;;;;4981400;28;5225;-60
2023/01/18 11:48:04;;;;;;;;;;;;;;;;;;4989576;28;5214;-60
2023/01/18 11:50:29;;;;;;;;;;;;;;;;;;4981593;28;4462;-60
2023/01/18 11:53:02;;;;;;;;;;;;;;;;;;4985733;28;5061;-60
2023/01/18 11:55:55;;;;;;;;;;;;;;;;;;4988021;28;4970;-55
2023/01/18 11:58:24;;;;;;;;;;;;;;;;;;4989581;28;1993;-60
2023/01/18 12:00:57;;;;;;;;;;;;;;;;;;4988971;28;5178;-60
2023/01/18 12:03:41;;;;;;;;;;;;;;;;;;4987469;28;4480;-61
2023/01/18 12:06:15;;;;;;;;;;;;;;;;;;4983050;28;5233;-60
2023/01/18 12:08:53;;;;;;;;;;;;;;;;;;4983649;28;5128;-60
2023/01/18 12:11:34;;;;;;;;;;;;;;;;;;4988909;28;5151;-60
2023/01/18 12:14:11;;;;;;;;;;;;;;;;;;4983828;28;5021;-60
2023/01/18 12:16:55;;;;;;;;;;;;;;;;;;4989893;28;5175;-60
2023/01/18 12:19:27;;;;;;;;;;;;;;;;;;4984688;28;1482;-60
2023/01/18 12:21:55;;;;;;;;;;;;;;;;;;4988147;28;5080;-60
2023/01/18 12:24:30;;;;;;;;;;;;;;;;;;4984814;28;4859;-60
2023/01/18 12:26:57;;;;;;;;;;;;;;;;;;4986873;28;5030;-59
2023/01/18 12:29:41;;;;;;;;;;;;;;;;;;5001307;28;5091;-59
2023/01/18 12:32:06;;;;;;;;;;;;;;;;;;4987628;28;5131;-59
2023/01/18 12:34:45;;;;;;;;;;;;;;;;;;4989033;28;4764;-60
2023/01/18 12:37:26;;;;;;;;;;;;;;;;;;4983831;28;1943;-61
2023/01/18 12:40:01;;;;;;;;;;;;;;;;;;4988198;28;4364;-60
2023/01/18 12:42:26;;;;;;;;;;;;;;;;;;4989394;28;4852;-61
2023/01/18 12:45:04;;;;;;;;;;;;;;;;;;4985995;28;5044;-60
2023/01/18 12:47:38;;;;;;;;;;;;;;;;;;4987392;28;5064;-59
2023/01/18 12:50:13;;;;;;;;;;;;;;;;;;4987041;28;4532;-60
2023/01/18 12:52:40;;;;;;;;;;;;;;;;;;4984339;28;5165;-60
2023/01/18 12:55:05;;;;;;;;;;;;;;;;;;4988038;28;3409;-60
2023/01/18 12:57:31;;;;;;;;;;;;;;;;;;4983332;28;5047;-60
2023/01/18 12:59:57;;;;;;;;;;;;;;;;;;4998022;28;5027;-59
2023/01/18 13:02:25;;;;;;;;;;;;;;;;;;4984808;28;4933;-59
2023/01/18 13:04:52;;;;;;;;;;;;;;;;;;4988494;28;4875;-60
2023/01/18 13:07:19;;;;;;;;;;;;;;;;;;4986675;28;1243;-59
2023/01/18 13:09:45;;;;;;;;;;;;;;;;;;4987244;28;4967;-60
2023/01/18 13:12:10;;;;;;;;;;;;;;;;;;4989034;28;5134;-60
2023/01/18 13:14:38;;;;;;;;;;;;;;;;;;4979665;28;4725;-59
2023/01/18 13:17:23;;;;;;;;;;;;;;;;;;4982023;28;5015;-59
2023/01/18 13:19:53;;;;;;;;;;;;;;;;;;4985620;28;5001;-60
2023/01/18 13:22:22;;;;;;;;;;;;;;;;;;4983784;28;3522;-54
2023/01/18 13:24:47;;;;;;;;;;;;;;;;;;4971394;28;4963;-61
2023/01/18 13:27:13;;;;;;;;;;;;;;;;;;4983773;28;4899;-59
2023/01/18 13:29:39;;;;;;;;;;;;;;;;;;4985693;28;5013;-61
2023/01/18 13:32:20;;;;;;;;;;;;;;;;;;4985963;28;5157;-61
2023/01/18 13:34:47;;;;;;;;;;;;;;;;;;4977937;28;4982;-58
2023/01/18 13:37:12;;;;;;;;;;;;;;;;;;5000218;28;1966;-59
2023/01/18 13:39:42;;;;;;;;;;;;;;;;;;4983167;28;5112;-62
2023/01/18 13:42:21;;;;;;;;;;;;;;;;;;4986621;28;5161;-64
2023/01/18 13:44:48;;;;;;;;;;;;;;;;;;4981996;28;5501;-64
2023/01/18 13:47:32;;;;;;;;;;;;;;;;;;4978332;28;4486;-63
2023/01/18 13:49:58;;;;;;;;;;;;;;;;;;4985211;28;4871;-63
2023/01/18 13:52:30;;;;;;;;;;;;;;;;;;4988514;28;1336;-64
2023/01/18 13:54:55;;;;;;;;;;;;;;;;;;4991760;28;5015;-64
2023/01/18 13:57:21;;;;;;;;;;;;;;;;;;4994724;28;5043;-67
2023/01/18 13:59:47;;;;;;;;;;;;;;;;;;4990796;28;5289;-63
2023/01/18 14:02:33;;;;;;;;;;;;;;;;;;5005497;28;4855;-64
2023/01/18 14:04:58;;;;;;;;;;;;;;;;;;4997698;28;5144;-64
2023/01/18 14:07:23;;;;;;;;;;;;;;;;;;5005935;28;1237;-65
2023/01/18 14:09:49;;;;;;;;;;;;;;;;;;5006493;28;5190;-65
2023/01/18 14:12:14;;;;;;;;;;;;;;;;;;5004273;28;4758;-65
2023/01/18 14:14:51;;;;;;;;;;;;;;;;;;5000911;28;5085;-64
2023/01/18 14:17:17;;;;;;;;;;;;;;;;;;5000170;28;5063;-64
2023/01/18 14:19:48;;;;;;;;;;;;;;;;;;5002950;28;5157;-66
2023/01/18 14:22:32;;;;;;;;;;;;;;;;;;4998065;28;1229;-63
2023/01/18 14:25:16;;;;;;;;;;;;;;;;;;5006515;28;5045;-63
2023/01/18 14:27:43;;;;;;;;;;;;;;;;;;4997106;28;4907;-64
2023/01/18 14:30:17;;;;;;;;;;;;;;;;;;5005673;28;4982;-63
2023/01/18 14:32:44;;;;;;;;;;;;;;;;;;5009153;28;4527;-63
2023/01/18 14:35:18;;;;;;;;;;;;;;;;;;5002957;28;5044;-63
2023/01/18 14:37:43;;;;;;;;;;;;;;;;;;5001646;28;5025;-62
2023/01/18 14:40:15;;;;;;;;;;;;;;;;;;5000590;28;3505;-60
2023/01/18 14:43:00;;;;;;;;;;;;;;;;;;5014004;28;4999;-61
2023/01/18 14:45:33;;;;;;;;;;;;;;;;;;5004568;28;5071;-61
2023/01/18 14:48:08;;;;;;;;;;;;;;;;;;5013740;28;4677;-61
2023/01/18 14:50:34;;;;;;;;;;;;;;;;;;4997280;28;5084;-62
2023/01/18 14:52:59;;;;;;;;;;;;;;;;;;5002924;28;5083;-62
2023/01/18 14:55:26;;;;;;;;;;;;;;;;;;5005553;28;3695;-62
2023/01/18 14:57:52;;;;;;;;;;;;;;;;;;5009531;28;4650;-61
2023/01/18 15:00:18;;;;;;;;;;;;;;;;;;5007117;28;5166;-61
2023/01/18 15:02:43;;;;;;;;;;;;;;;;;;5010390;28;5090;-61
2023/01/18 15:05:09;;;;;;;;;;;;;;;;;;5008823;28;4900;-62
2023/01/18 15:07:37;;;;;;;;;;;;;;;;;;5006696;28;4513;-63
2023/01/18 15:10:02;;;;;;;;;;;;;;;;;;5006134;28;1421;-58
2023/01/18 15:12:28;;;;;;;;;;;;;;;;;;5017162;28;5273;-64
2023/01/18 15:14:54;;;;;;;;;;;;;;;;;;5004919;28;5151;-61
2023/01/18 15:17:21;;;;;;;;;;;;;;;;;;5001908;28;5429;-61
2023/01/18 15:19:47;;;;;;;;;;;;;;;;;;5002922;28;4557;-70
2023/01/18 15:22:14;;;;;;;;;;;;;;;;;;4993139;28;3722;-62
2023/01/18 15:24:39;;;;;;;;;;;;;;;;;;5000510;28;4466;-65
2023/01/18 15:27:05;;;;;;;;;;;;;;;;;;4999327;28;5141;-64
2023/01/18 15:29:31;;;;;;;;;;;;;;;;;;5000938;28;5146;-64
2023/01/18 15:31:57;;;;;;;;;;;;;;;;;;5006410;28;5135;-66
2023/01/18 15:34:29;;;;;;;;;;;;;;;;;;5009342;28;3191;-63
2023/01/18 15:36:55;;;;;;;;;;;;;;;;;;5006906;28;4907;-63
2023/01/18 15:39:20;;;;;;;;;;;;;;;;;;5019495;28;5021;-61
2023/01/18 15:41:46;;;;;;;;;;;;;;;;;;5001688;28;5077;-65
2023/01/18 15:44:34;;;;;;;;;;;;;;;;;;5004924;28;5300;-65
2023/01/18 15:47:00;;;;;;;;;;;;;;;;;;4990643;28;5166;-64
2023/01/18 15:49:25;;;;;;;;;;;;;;;;;;4997688;28;3550;-64
2023/01/18 15:51:55;;;;;;;;;;;;;;;;;;5007884;28;4587;-66
2023/01/18 15:54:23;;;;;;;;;;;;;;;;;;5006332;28;5139;-66
2023/01/18 15:56:48;;;;;;;;;;;;;;;;;;5004425;28;5157;-68
2023/01/18 15:59:16;;;;;;;;;;;;;;;;;;5000009;28;5034;-69
2023/01/18 16:01:43;;;;;;;;;;;;;;;;;;5007432;28;4533;-68
2023/01/18 16:04:08;;;;;;;;;;;;;;;;;;5007701;28;3393;-68
2023/01/18 16:06:35;;;;;;;;;;;;;;;;;;5002891;28;5011;-68
2023/01/18 16:09:07;;;;;;;;;;;;;;;;;;5005137;28;4748;-68
2023/01/18 16:14:33;;;;;;;;;;;;;;;;;;5005284;28;5316;-68
2023/01/18 16:17:26;;;;;;;;;;;;;;;;;;5007609;28;5075;-68
2023/01/18 16:19:52;;;;;;;;;;;;;;;;;;5002026;28;5395;-68
2023/01/18 16:22:23;;;;;;;;;;;;;;;;;;5000779;28;3401;-68
2023/01/18 16:24:51;;;;;;;;;;;;;;;;;;4997016;28;4818;-68
2023/01/18 16:27:20;;;;;;;;;;;;;;;;;;5002633;28;4928;-68
2023/01/18 16:29:49;;;;;;;;;;;;;;;;;;5002018;28;5164;-68
2023/01/18 16:32:37;;;;;;;;;;;;;;;;;;5000826;28;5368;-76
2023/01/18 16:35:13;;;;;;;;;;;;;;;;;;4999567;28;5159;-71
2023/01/18 16:37:43;;;;;;;;;;;;;;;;;;5009091;28;4653;-68
2023/01/18 16:40:10;;;;;;;;;;;;;;;;;;5011009;28;1280;-73
2023/01/18 16:42:53;;;;;;;;;;;;;;;;;;5008237;28;4846;-72
2023/01/18 16:45:18;;;;;;;;;;;;;;;;;;5004162;28;4459;-71
2023/01/18 16:47:43;;;;;;;;;;;;;;;;;;5000982;28;4460;-71
2023/01/18 16:50:15;;;;;;;;;;;;;;;;;;5001390;28;5111;-72
2023/01/18 16:52:40;;;;;;;;;;;;;;;;;;5004369;28;5021;-67
2023/01/18 16:55:05;;;;;;;;;;;;;;;;;;5004245;28;3284;-68
2023/01/18 16:57:31;;;;;;;;;;;;;;;;;;4993225;28;5149;-65
2023/01/18 16:59:57;;;;;;;;;;;;;;;;;;5002885;28;5113;-65
2023/01/18 17:02:22;;;;;;;;;;;;;;;;;;5007013;28;5255;-66
2023/01/18 17:04:47;;;;;;;;;;;;;;;;;;5002414;28;5218;-66
2023/01/18 17:07:13;;;;;;;;;;;;;;;;;;5011686;28;3419;-68
2023/01/18 17:09:38;;;;;;;;;;;;;;;;;;5003986;28;5158;-72
2023/01/18 17:12:04;;;;;;;;;;;;;;;;;;5003603;28;4864;-65
2023/01/18 17:14:29;;;;;;;;;;;;;;;;;;4999068;28;4894;-67
2023/01/18 17:16:54;;;;;;;;;;;;;;;;;;5001820;28;5141;-66
2023/01/18 17:19:20;;;;;;;;;;;;;;;;;;5007437;28;3406;-68
2023/01/18 17:21:46;;;;;;;;;;;;;;;;;;5006587;28;5032;-68
2023/01/18 17:24:11;;;;;;;;;;;;;;;;;;5001458;28;5099;-69
2023/01/18 17:26:37;;;;;;;;;;;;;;;;;;5006855;28;4909;-68
2023/01/18 17:29:02;;;;;;;;;;;;;;;;;;5001774;28;4488;-68
2023/01/18 17:31:28;;;;;;;;;;;;;;;;;;4985914;28;5014;-67
2023/01/18 17:33:53;;;;;;;;;;;;;;;;;;4978958;28;4061;-68
2023/01/18 17:36:18;;;;;;;;;;;;;;;;;;4992578;28;5143;-67
2023/01/18 17:38:44;;;;;;;;;;;;;;;;;;4988993;28;5125;-71
2023/01/18 17:41:15;;;;;;;;;;;;;;;;;;4988569;28;5153;-67
2023/01/18 17:43:40;;;;;;;;;;;;;;;;;;5000765;28;5524;-69